createdAt,value
2022-10-16T00:00:48.116Z,3.17
2022-10-16T00:06:12.389Z,2.63
2022-10-16T00:11:30.340Z,2.90
2022-10-16T00:16:33.024Z,2.78
2022-10-16T00:21:38.100Z,3.05
2022-10-16T00:26:41.004Z,2.95
2022-10-16T00:31:43.041Z,3.30
2022-10-16T00:36:45.019Z,2.75
2022-10-16T00:41:47.123Z,2.90
2022-10-16T00:46:49.695Z,2.75
2022-10-16T00:51:54.834Z,2.55
2022-10-16T00:57:00.942Z,2.85
2022-10-16T01:02:04.509Z,2.53
2022-10-16T01:07:35.684Z,2.17
2022-10-16T01:12:47.776Z,2.30
2022-10-16T01:17:57.607Z,2.45
2022-10-16T01:23:06.951Z,2.10
2022-10-16T01:28:13.990Z,1.70
2022-10-16T01:33:17.852Z,1.95
2022-10-16T01:38:36.409Z,2.17
2022-10-16T01:43:43.850Z,1.85
2022-10-16T01:48:46.784Z,1.67
2022-10-16T01:53:53.012Z,1.98
2022-10-16T01:59:16.146Z,2.03
2022-10-16T02:04:38.893Z,1.67
2022-10-16T02:09:41.193Z,1.80
2022-10-16T02:14:43.259Z,1.80
2022-10-16T02:19:48.040Z,1.58
2022-10-16T02:24:59.529Z,1.45
2022-10-16T02:30:12.380Z,1.58
2022-10-16T02:35:17.073Z,1.60
2022-10-16T02:40:21.570Z,1.50
2022-10-16T02:45:26.645Z,1.42
2022-10-16T02:50:28.655Z,1.33
2022-10-16T02:55:30.631Z,1.60
2022-10-16T03:00:32.622Z,1.40
2022-10-16T03:05:34.635Z,1.30
2022-10-16T03:10:36.596Z,1.88
2022-10-16T03:15:38.550Z,1.80
2022-10-16T03:20:40.620Z,1.50
2022-10-16T03:25:42.599Z,1.50
2022-10-16T03:30:44.973Z,1.90
2022-10-16T03:35:53.175Z,1.98
2022-10-16T03:40:55.168Z,1.67
2022-10-16T03:45:57.138Z,1.42
2022-10-16T03:50:59.462Z,1.77
2022-10-16T03:56:01.551Z,1.92
2022-10-16T04:01:03.619Z,1.70
2022-10-16T04:06:06.012Z,1.75
2022-10-16T04:11:07.999Z,1.75
2022-10-16T04:16:10.011Z,1.80
2022-10-16T04:21:11.960Z,1.60
2022-10-16T04:26:14.056Z,1.73
2022-10-16T04:31:16.026Z,1.70
2022-10-16T04:36:17.963Z,1.60
2022-10-16T04:41:21.171Z,2.00
2022-10-16T04:46:23.123Z,1.67
2022-10-16T04:51:26.464Z,1.80
2022-10-16T04:56:28.599Z,1.70
2022-10-16T05:01:30.556Z,2.00
2022-10-16T05:06:32.796Z,1.80
2022-10-16T05:11:35.171Z,1.67
2022-10-16T05:16:37.234Z,2.00
2022-10-16T05:21:39.403Z,1.67
2022-10-16T05:26:41.578Z,1.65
2022-10-16T05:31:43.635Z,1.55
2022-10-16T05:36:46.173Z,1.90
2022-10-16T05:41:50.484Z,1.63
2022-10-16T05:46:52.539Z,2.28
2022-10-16T05:51:54.653Z,1.77
2022-10-16T05:56:56.657Z,2.28
2022-10-16T06:01:58.639Z,2.72
2022-10-16T06:07:01.506Z,1.90
2022-10-16T06:12:03.876Z,2.20
2022-10-16T06:17:05.887Z,2.28
2022-10-16T06:22:08.231Z,2.08
2022-10-16T06:27:10.533Z,2.33
2022-10-16T06:32:12.635Z,2.03
2022-10-16T06:37:15.839Z,2.08
2022-10-16T06:42:18.084Z,2.10
2022-10-16T06:47:20.733Z,1.98
2022-10-16T06:52:22.687Z,2.45
2022-10-16T06:57:24.673Z,2.38
2022-10-16T07:02:26.766Z,2.15
2022-10-16T07:07:29.252Z,1.75
2022-10-16T07:12:31.621Z,2.20
2022-10-16T07:17:35.133Z,2.45
2022-10-16T07:22:37.194Z,2.10
2022-10-16T07:27:39.498Z,1.75
2022-10-16T07:32:41.505Z,2.00
2022-10-16T07:37:47.486Z,2.17
2022-10-16T07:42:49.457Z,2.08
2022-10-16T07:47:51.409Z,2.38
2022-10-16T07:52:53.468Z,1.95
2022-10-16T07:57:55.943Z,2.63
2022-10-16T08:03:01.109Z,2.10
2022-10-16T08:08:03.496Z,2.05
2022-10-16T08:13:05.448Z,1.95
2022-10-16T08:18:07.505Z,2.30
2022-10-16T08:23:12.024Z,2.40
2022-10-16T08:28:15.049Z,2.00
2022-10-16T08:33:17.227Z,2.20
2022-10-16T08:38:19.231Z,2.50
2022-10-16T08:43:22.009Z,2.65
2022-10-16T08:48:50.086Z,2.40
2022-10-16T08:53:56.179Z,2.45
2022-10-16T08:59:01.631Z,1.80
2022-10-16T09:04:37.719Z,1.70
2022-10-16T09:09:53.321Z,2.15
2022-10-16T09:15:07.287Z,1.77
2022-10-16T09:20:21.002Z,1.83
2022-10-16T09:25:23.200Z,1.85
2022-10-16T09:30:29.118Z,1.75
2022-10-16T09:35:50.814Z,1.90
2022-10-16T09:40:59.155Z,1.40
2022-10-16T09:46:07.448Z,1.75
2022-10-16T09:51:20.811Z,1.63
2022-10-16T09:56:25.487Z,1.73
2022-10-16T10:01:48.137Z,1.98
2022-10-16T10:06:51.816Z,1.65
2022-10-16T10:11:55.350Z,1.90
2022-10-16T10:17:06.660Z,2.10
2022-10-16T10:27:35.379Z,1.50
2022-10-16T10:32:43.802Z,1.63
2022-10-16T10:38:07.746Z,1.45
2022-10-16T10:43:27.230Z,1.60
2022-10-16T10:48:59.655Z,1.55
2022-10-16T10:54:20.176Z,2.15
2022-10-16T10:59:51.683Z,2.05
2022-10-16T11:05:21.419Z,1.40
2022-10-16T11:10:28.172Z,1.38
2022-10-16T11:15:34.120Z,1.55
2022-10-16T11:20:44.009Z,1.73
2022-10-16T11:25:47.478Z,1.85
2022-10-16T11:31:01.061Z,1.70
2022-10-16T11:36:29.553Z,1.45
2022-10-16T11:42:02.798Z,1.35
2022-10-16T11:47:39.696Z,1.90
2022-10-16T11:52:45.724Z,1.58
2022-10-16T11:57:55.255Z,2.03
2022-10-16T12:03:12.789Z,1.60
2022-10-16T12:08:17.250Z,1.50
2022-10-16T12:13:41.379Z,1.52
2022-10-16T12:18:47.349Z,1.58
2022-10-16T12:23:52.031Z,2.90
2022-10-16T12:28:55.458Z,2.20
2022-10-16T12:34:04.583Z,2.67
2022-10-16T12:39:06.648Z,1.42
2022-10-16T12:44:24.778Z,1.88
2022-10-16T12:49:38.683Z,2.00
2022-10-16T12:54:42.737Z,2.42
2022-10-16T12:59:53.989Z,1.40
2022-10-16T13:05:25.992Z,1.50
2022-10-16T13:10:40.546Z,1.30
2022-10-16T13:16:05.027Z,1.48
2022-10-16T13:21:19.508Z,2.70
2022-10-16T13:26:47.800Z,2.35
2022-10-16T13:31:50.342Z,1.50
2022-10-16T13:36:54.203Z,1.20
2022-10-16T13:42:28.334Z,1.30
2022-10-16T13:47:31.183Z,0.88
2022-10-16T13:52:33.596Z,1.00
2022-10-16T13:57:35.639Z,1.27
2022-10-16T14:02:40.691Z,1.48
2022-10-16T14:07:43.664Z,0.90
2022-10-16T14:12:45.921Z,1.05
2022-10-16T14:17:51.593Z,1.20
2022-10-16T14:23:05.935Z,1.23
2022-10-16T14:28:10.971Z,1.10
2022-10-16T14:33:42.286Z,1.10
2022-10-16T14:38:58.901Z,1.15
2022-10-16T14:44:05.197Z,1.08
2022-10-16T14:49:10.080Z,0.90
2022-10-16T14:54:14.141Z,1.10
2022-10-16T14:59:34.410Z,1.02
2022-10-16T15:04:36.377Z,1.30
2022-10-16T15:09:38.453Z,0.90
2022-10-16T15:14:40.480Z,1.02
2022-10-16T15:19:42.657Z,1.35
2022-10-16T15:24:44.812Z,1.10
2022-10-16T15:29:46.785Z,0.93
2022-10-16T15:34:48.767Z,1.15
2022-10-16T15:39:51.665Z,1.40
2022-10-16T15:44:53.675Z,1.55
2022-10-16T15:49:55.614Z,1.58
2022-10-16T15:54:57.874Z,1.55
2022-10-16T15:59:59.923Z,1.40
2022-10-16T16:05:02.687Z,1.52
2022-10-16T16:10:06.651Z,2.42
2022-10-16T16:15:10.122Z,1.85
2022-10-16T16:20:12.559Z,1.77
2022-10-16T16:25:14.554Z,1.80
2022-10-16T16:30:19.824Z,1.52
2022-10-16T16:35:23.108Z,2.10
2022-10-16T16:40:25.175Z,2.17
2022-10-16T16:50:30.152Z,2.50
2022-10-16T16:55:33.619Z,2.80
2022-10-16T17:00:35.787Z,3.08
2022-10-16T17:05:37.818Z,3.70
2022-10-16T17:10:45.607Z,3.10
2022-10-16T17:15:49.752Z,3.03
2022-10-16T17:20:51.756Z,4.00
2022-10-16T17:25:54.167Z,3.60
2022-10-16T17:30:56.380Z,3.10
2022-10-16T17:35:58.998Z,3.10
2022-10-16T17:41:14.036Z,3.30
2022-10-16T17:46:19.463Z,3.25
2022-10-16T17:51:27.486Z,3.80
2022-10-16T17:56:30.158Z,3.05
2022-10-16T18:01:35.277Z,4.90
2022-10-16T18:06:39.445Z,6.25
2022-10-16T18:11:41.503Z,6.53
2022-10-16T18:16:44.202Z,11.98
2022-10-16T18:21:47.275Z,9.52
2022-10-16T18:26:49.905Z,7.90
2022-10-16T18:31:52.367Z,5.95
2022-10-16T18:36:55.206Z,5.70
2022-10-16T18:41:59.930Z,6.50
2022-10-16T18:47:02.426Z,4.68
2022-10-16T18:52:04.693Z,3.75
2022-10-16T18:57:06.689Z,3.20
2022-10-16T19:02:09.364Z,3.30
2022-10-16T19:07:11.419Z,3.72
2022-10-16T19:12:13.397Z,3.45
2022-10-16T19:17:15.501Z,3.35
2022-10-16T19:22:28.276Z,3.20
2022-10-16T19:27:30.585Z,3.20
2022-10-16T19:32:32.743Z,3.42
2022-10-16T19:37:35.194Z,3.42
2022-10-16T19:42:43.088Z,4.25
2022-10-16T19:47:45.834Z,3.90
2022-10-16T19:52:47.795Z,3.60
2022-10-16T19:57:49.850Z,3.75
2022-10-16T20:02:51.828Z,3.33
2022-10-16T20:07:53.878Z,3.40
2022-10-16T20:12:55.891Z,3.28
2022-10-16T20:17:58.090Z,3.25
2022-10-16T20:23:00.157Z,3.10
2022-10-16T20:28:02.147Z,3.10
2022-10-16T20:33:04.797Z,3.40
2022-10-16T20:38:07.352Z,3.20
2022-10-16T20:43:18.148Z,3.88
2022-10-16T20:48:20.156Z,3.17
2022-10-16T20:53:22.713Z,3.50
2022-10-16T20:58:24.669Z,3.40
2022-10-16T21:03:26.616Z,4.03
2022-10-16T21:08:28.612Z,3.72
2022-10-16T21:13:30.757Z,4.25
2022-10-16T21:18:33.324Z,4.47
2022-10-16T21:23:35.588Z,4.00
2022-10-16T21:28:37.683Z,4.75
2022-10-16T21:33:39.798Z,4.78
2022-10-16T21:38:41.953Z,4.65
2022-10-16T21:43:44.512Z,3.95
2022-10-16T21:48:47.091Z,4.85
2022-10-16T21:53:49.090Z,5.60
2022-10-16T21:58:51.188Z,5.30
2022-10-16T22:03:54.135Z,5.55
2022-10-16T22:09:01.547Z,5.82
2022-10-16T22:14:05.585Z,6.03
2022-10-16T22:19:08.184Z,6.43
2022-10-16T22:24:10.415Z,6.35
2022-10-16T22:29:14.586Z,5.88
2022-10-16T22:34:16.536Z,6.05
2022-10-16T22:39:18.664Z,7.00
2022-10-16T22:44:20.666Z,6.68
2022-10-16T22:49:23.577Z,7.05
2022-10-16T22:54:25.536Z,6.13
2022-10-16T22:59:27.527Z,6.15
2022-10-16T23:04:31.808Z,7.03
2022-10-16T23:09:33.753Z,6.88
2022-10-16T23:14:35.701Z,6.95
2022-10-16T23:19:37.674Z,6.65
2022-10-16T23:24:39.716Z,6.70
2022-10-16T23:29:41.694Z,6.15
2022-10-16T23:34:43.666Z,6.05
2022-10-16T23:39:45.627Z,6.75
2022-10-16T23:44:47.582Z,7.25
2022-10-16T23:49:49.581Z,6.70
2022-10-16T23:54:51.572Z,7.20
2022-10-16T23:59:53.540Z,6.90
